Time;durP1;ratioP1;P1;durP2;ratioP2;P2;SDS_P1;SDS_P2;PMS_P1;PMS_P2;Temp;Humidity;BMP_temperature;BMP_pressure;BME280_temperature;BME280_humidity;BME280_pressure;Samples;Min_cycle;Max_cycle;Signal;HPM_P1;HPM_P2
2022/08/28 00:00:00;;;;;;;0.05;0.05;;;24.00;58.40;;;;;;4059061;28;20418;-64
2022/08/28 00:02:56;;;;;;;0.00;0.00;;;24.00;58.40;;;;;;4124708;28;20055;-61
2022/08/28 00:06:27;;;;;;;0.00;0.00;;;24.00;58.40;;;;;;4113184;28;20052;-61
2022/08/28 00:13:32;;;;;;;0.00;0.00;;;24.00;58.40;;;;;;4078460;28;20478;-67
2022/08/28 00:17:41;;;;;;;0.05;0.05;;;24.00;58.50;;;;;;4109339;28;20053;-69
2022/08/28 00:20:39;;;;;;;0.00;0.00;;;24.00;58.50;;;;;;4091244;28;20496;-69
2022/08/28 00:23:57;;;;;;;0.35;0.30;;;24.00;58.50;;;;;;4102814;28;20452;-68
2022/08/28 00:31:12;;;;;;;0.00;0.00;;;24.00;58.50;;;;;;4154196;28;20090;-67
2022/08/28 00:35:27;;;;;;;0.00;0.00;;;23.90;58.50;;;;;;4114782;28;20430;-67
2022/08/28 00:38:29;;;;;;;0.20;0.20;;;23.90;58.60;;;;;;4153323;28;20799;-66
2022/08/28 00:41:52;;;;;;;0.10;0.10;;;24.00;58.60;;;;;;4147225;28;20689;-67
2022/08/28 00:44:53;;;;;;;0.15;0.15;;;23.90;58.60;;;;;;4124386;28;20092;-67
2022/08/28 00:47:48;;;;;;;0.00;0.00;;;23.90;58.50;;;;;;4149120;28;20778;-68
2022/08/28 00:53:52;;;;;;;0.00;0.00;;;23.90;58.60;;;;;;4122636;28;20415;-68
2022/08/28 00:56:54;;;;;;;0.00;0.00;;;23.90;58.70;;;;;;4127210;28;20051;-70
2022/08/28 01:00:04;;;;;;;0.00;0.00;;;23.80;58.50;;;;;;4142256;28;20507;-68
2022/08/28 01:03:17;;;;;;;0.00;0.00;;;23.80;58.50;;;;;;4167361;28;20056;-61
2022/08/28 01:06:07;;;;;;;7.78;0.43;;;23.80;58.60;;;;;;4159906;28;20055;-61
2022/08/28 01:09:03;;;;;;;0.00;0.00;;;23.80;58.60;;;;;;4133942;28;20051;-62
2022/08/28 01:12:47;;;;;;;0.00;0.00;;;23.80;58.60;;;;;;4157271;28;20070;-61
2022/08/28 01:16:10;;;;;;;0.00;0.00;;;23.80;58.70;;;;;;4146705;28;20543;-64
2022/08/28 01:19:25;;;;;;;0.00;0.00;;;23.80;58.70;;;;;;4148199;28;20108;-62
2022/08/28 01:23:01;;;;;;;0.10;0.10;;;23.70;58.70;;;;;;4140023;28;20514;-61
2022/08/28 01:26:42;;;;;;;0.00;0.00;;;23.70;58.80;;;;;;4126907;28;20434;-62
2022/08/28 01:29:58;;;;;;;;;;;;;;;;;;;;;
2022/08/28 01:34:01;;;;;;;0.00;0.00;;;23.70;58.80;;;;;;4154509;28;20050;-61
2022/08/28 01:37:59;;;;;;;0.10;0.10;;;23.60;58.90;;;;;;4132525;28;20606;-61
2022/08/28 01:41:44;;;;;;;0.32;0.32;;;23.70;59.00;;;;;;4112898;28;20059;-61
2022/08/28 01:45:36;;;;;;;0.45;0.45;;;23.70;59.00;;;;;;4190391;27;20055;-61
2022/08/28 01:49:13;;;;;;;;;;;;;;;;;;;;;
2022/08/28 01:52:30;;;;;;;0.00;0.00;;;23.60;59.00;;;;;;4192499;27;20054;-61
2022/08/28 01:56:07;;;;;;;0.00;0.00;;;23.60;59.10;;;;;;4154844;28;20875;-61
2022/08/28 01:59:38;;;;;;;0.00;0.00;;;23.60;59.10;;;;;;4117725;28;20199;-61
2022/08/28 02:07:17;;;;;;;0.00;0.00;;;23.50;59.10;;;;;;4093392;28;20115;-61
2022/08/28 02:11:15;;;;;;;;;;;;;;;;;;;;;
2022/08/28 02:14:53;;;;;;;0.00;0.00;;;23.50;59.20;;;;;;4076347;28;20080;-62
2022/08/28 02:18:41;;;;;;;0.00;0.00;;;23.50;59.20;;;;;;4104530;28;20103;-61
2022/08/28 02:22:31;;;;;;;0.00;0.00;;;23.50;59.20;;;;;;4089119;28;20140;-62
2022/08/28 02:25:50;;;;;;;0.10;0.10;;;23.50;59.20;;;;;;4091917;28;20061;-62
2022/08/28 02:29:13;;;;;;;0.35;0.30;;;23.50;59.30;;;;;;4122369;28;20104;-61
2022/08/28 02:32:43;;;;;;;0.00;0.00;;;23.40;59.20;;;;;;4079164;28;20060;-63
2022/08/28 02:35:45;;;;;;;0.20;0.20;;;23.40;59.30;;;;;;4120724;28;20059;-62
2022/08/28 02:47:36;;;;;;;0.00;0.00;;;23.40;59.30;;;;;;4145777;28;20124;-62
2022/08/28 02:51:55;;;;;;;;;;;;;;;;;;;;;
2022/08/28 02:55:06;;;;;;;0.00;0.00;;;23.40;59.30;;;;;;4127319;28;20505;-61
2022/08/28 02:58:46;;;;;;;0.00;0.00;;;23.40;59.40;;;;;;4173366;28;20108;-61
2022/08/28 03:02:25;;;;;;;0.00;0.00;;;23.40;59.40;;;;;;4124771;28;20096;-62
2022/08/28 03:06:24;;;;;;;0.00;0.00;;;23.30;59.40;;;;;;4106850;28;20173;-60
2022/08/28 03:10:17;;;;;;;0.00;0.00;;;23.30;59.40;;;;;;4143974;28;20079;-64
2022/08/28 03:13:11;;;;;;;0.00;0.00;;;23.30;59.40;;;;;;4115189;28;20403;-63
2022/08/28 03:16:34;;;;;;;;;;;;;;;;;;;;;
2022/08/28 03:20:22;;;;;;;0.00;0.00;;;23.30;59.50;;;;;;4131049;28;20059;-60
2022/08/28 03:23:59;;;;;;;0.10;0.10;;;23.30;59.50;;;;;;4151398;28;20089;-63
2022/08/28 03:27:04;;;;;;;0.10;0.10;;;23.30;59.50;;;;;;4156781;28;20057;-71
2022/08/28 03:30:19;;;;;;;0.00;0.00;;;23.30;59.50;;;;;;4161622;28;20046;-70
2022/08/28 03:33:32;;;;;;;0.28;0.28;;;23.30;59.50;;;;;;4137070;28;20064;-69
2022/08/28 03:36:42;;;;;;;0.10;0.10;;;23.20;59.50;;;;;;4161375;28;20094;-70
2022/08/28 03:39:45;;;;;;;0.10;0.10;;;23.30;59.60;;;;;;4155945;28;20089;-71
2022/08/28 03:46:00;;;;;;;0.00;0.00;;;23.20;59.50;;;;;;4169019;28;20466;-69
2022/08/28 03:49:28;;;;;;;0.00;0.00;;;23.20;59.50;;;;;;4150006;28;20083;-69
2022/08/28 03:53:04;;;;;;;0.30;0.30;;;23.20;59.60;;;;;;4123341;28;20465;-69
2022/08/28 04:07:06;;;;;;;0.00;0.00;;;23.20;59.60;;;;;;4046383;28;20057;-67
2022/08/28 04:10:39;;;;;;;;;;;;;;;;;;;;;
2022/08/28 04:13:56;;;;;;;;;;;;;;;;;;;;;
2022/08/28 04:17:59;;;;;;;0.10;0.10;;;23.10;59.60;;;;;;4092670;28;20478;-67
2022/08/28 04:21:59;;;;;;;0.00;0.00;;;23.10;59.60;;;;;;4145711;28;20056;-71
2022/08/28 04:25:11;;;;;;;0.10;0.10;;;23.10;59.60;;;;;;4152335;28;20431;-68
2022/08/28 04:28:55;;;;;;;0.00;0.00;;;23.10;59.60;;;;;;4089487;28;20105;-70
2022/08/28 04:32:04;;;;;;;0.00;0.00;;;23.00;59.60;;;;;;4131838;28;20059;-70
2022/08/28 04:35:10;;;;;;;0.00;0.00;;;23.00;59.60;;;;;;4159068;28;20505;-69
2022/08/28 04:38:13;;;;;;;0.52;0.10;;;23.10;59.70;;;;;;4166273;28;20528;-69
2022/08/28 04:41:19;;;;;;;0.00;0.00;;;23.10;59.70;;;;;;4122963;28;20129;-68
2022/08/28 04:44:21;;;;;;;0.15;0.15;;;23.10;59.80;;;;;;4182563;28;20399;-62
2022/08/28 04:47:26;;;;;;;0.17;0.17;;;23.00;59.70;;;;;;4185504;28;20798;-62
2022/08/28 04:50:16;;;;;;;0.00;0.00;;;23.00;59.70;;;;;;4136694;28;20075;-62
2022/08/28 04:53:20;;;;;;;0.00;0.00;;;23.00;59.70;;;;;;4174401;28;20060;-63
2022/08/28 04:56:25;;;;;;;1.13;0.77;;;23.00;59.80;;;;;;4159215;28;20480;-70
2022/08/28 04:59:29;;;;;;;0.00;0.00;;;23.00;59.80;;;;;;4131094;28;20063;-68
2022/08/28 05:06:50;;;;;;;1.15;1.15;;;23.00;59.80;;;;;;4125161;28;20427;-62
2022/08/28 05:11:10;;;;;;;0.00;0.00;;;23.00;60.10;;;;;;4150363;28;20055;-62
2022/08/28 05:18:55;;;;;;;0.00;0.00;;;23.00;60.00;;;;;;4101684;28;20253;-63
2022/08/28 05:22:43;;;;;;;0.00;0.00;;;23.00;59.90;;;;;;4034913;28;20187;-62
2022/08/28 05:26:16;;;;;;;0.00;0.00;;;23.00;60.00;;;;;;4075550;28;20057;-63
2022/08/28 05:34:03;;;;;;;0.00;0.00;;;23.00;60.00;;;;;;4152219;28;20482;-63
2022/08/28 05:37:38;;;;;;;0.00;0.00;;;23.00;62.40;;;;;;4142844;28;20580;-64
2022/08/28 05:41:00;;;;;;;0.40;0.40;;;23.00;64.10;;;;;;4155440;28;20087;-64
2022/08/28 05:44:44;;;;;;;3.50;1.45;;;23.00;65.80;;;;;;4176951;28;20079;-64
2022/08/28 05:48:48;;;;;;;0.00;0.00;;;23.00;65.30;;;;;;4144258;28;20178;-66
2022/08/28 05:52:14;;;;;;;0.15;0.15;;;23.00;63.80;;;;;;4140286;28;20114;-63
2022/08/28 05:56:10;;;;;;;0.60;0.57;;;23.00;62.90;;;;;;4164405;28;20081;-63
2022/08/28 06:00:25;;;;;;;0.10;0.10;;;23.00;62.50;;;;;;4156148;28;20102;-64
2022/08/28 06:04:07;;;;;;;0.63;0.43;;;22.90;62.20;;;;;;4129310;28;20059;-62
2022/08/28 06:07:46;;;;;;;3.72;1.55;;;22.90;62.00;;;;;;4166626;28;20063;-64
2022/08/28 06:10:56;;;;;;;0.00;0.00;;;22.80;61.90;;;;;;4162272;28;20199;-63
2022/08/28 06:14:00;;;;;;;0.95;0.95;;;22.80;61.90;;;;;;4153724;28;20541;-64
2022/08/28 06:20:41;;;;;;;0.03;0.03;;;22.80;61.50;;;;;;4194271;28;20216;-65
2022/08/28 06:24:12;;;;;;;0.00;0.00;;;22.80;61.10;;;;;;4170003;28;20059;-63
2022/08/28 06:28:01;;;;;;;7.72;1.15;;;22.80;61.20;;;;;;4102804;28;20057;-63
2022/08/28 06:31:56;;;;;;;0.00;0.00;;;22.80;60.80;;;;;;4090183;28;20507;-64
2022/08/28 06:35:38;;;;;;;1.52;1.42;;;22.90;60.90;;;;;;4079597;28;20073;-64
2022/08/28 06:38:49;;;;;;;0.20;0.20;;;22.90;60.90;;;;;;4091742;28;20052;-63
2022/08/28 06:42:07;;;;;;;0.00;0.00;;;22.90;60.40;;;;;;4108160;28;20060;-62
2022/08/28 06:45:32;;;;;;;0.90;0.75;;;23.00;60.20;;;;;;4091005;28;20092;-63
2022/08/28 06:49:14;;;;;;;0.00;0.00;;;23.00;60.00;;;;;;4110783;28;21617;-63
2022/08/28 06:56:39;;;;;;;0.00;0.00;;;22.90;59.50;;;;;;4044020;29;20054;-62
2022/08/28 07:03:35;;;;;;;0.00;0.00;;;23.00;59.00;;;;;;4065419;28;20078;-64
2022/08/28 07:06:49;;;;;;;0.00;0.00;;;23.10;58.30;;;;;;4061634;28;20082;-62
2022/08/28 07:10:30;;;;;;;0.52;0.52;;;23.10;58.00;;;;;;4053842;28;20054;-62
2022/08/28 07:14:27;;;;;;;0.00;0.00;;;23.10;57.50;;;;;;4065806;28;20624;-62
2022/08/28 07:17:31;;;;;;;0.00;0.00;;;23.10;56.70;;;;;;4096352;28;20061;-62
2022/08/28 07:20:42;;;;;;;0.00;0.00;;;23.10;57.40;;;;;;4092923;28;20073;-62
2022/08/28 07:23:54;;;;;;;0.32;0.32;;;23.00;57.70;;;;;;4118396;28;20049;-63
2022/08/28 07:31:19;;;;;;;0.00;0.00;;;23.10;57.90;;;;;;4141463;28;20905;-70
2022/08/28 07:39:25;;;;;;;0.00;0.00;;;23.20;57.10;;;;;;4123742;28;20622;-69
2022/08/28 07:46:14;;;;;;;0.00;0.00;;;23.30;55.70;;;;;;4132991;28;20060;-69
2022/08/28 07:52:50;;;;;;;0.00;0.00;;;23.40;56.30;;;;;;4073783;28;20081;-70
2022/08/28 08:01:10;;;;;;;0.00;0.00;;;23.40;56.20;;;;;;4067732;28;20065;-64
2022/08/28 08:05:45;;;;;;;0.00;0.00;;;23.40;55.70;;;;;;4158482;28;20063;-71
2022/08/28 08:13:56;;;;;;;0.10;0.10;;;23.50;55.50;;;;;;4128294;28;20578;-69
2022/08/28 08:22:07;;;;;;;0.00;0.00;;;23.50;54.80;;;;;;4157241;28;20100;-63
2022/08/28 08:30:00;;;;;;;0.00;0.00;;;23.50;54.50;;;;;;4144184;28;20063;-64
2022/08/28 08:33:51;;;;;;;0.00;0.00;;;23.50;54.70;;;;;;4136255;28;20051;-63
2022/08/28 08:37:19;;;;;;;0.10;0.10;;;23.40;55.00;;;;;;4152819;28;20113;-64
2022/08/28 08:41:00;;;;;;;1.65;1.00;;;23.40;55.00;;;;;;4120933;28;20120;-64
2022/08/28 08:47:56;;;;;;;0.00;0.00;;;23.50;55.20;;;;;;4171715;28;20067;-63
2022/08/28 08:51:32;;;;;;;0.25;0.25;;;23.50;54.30;;;;;;4124497;28;20059;-64
2022/08/28 08:59:18;;;;;;;0.00;0.00;;;23.50;54.20;;;;;;4061269;28;20144;-71
2022/08/28 09:02:46;;;;;;;0.00;0.00;;;23.50;54.60;;;;;;4108153;28;20149;-69
2022/08/28 09:06:02;;;;;;;0.00;0.00;;;23.50;55.00;;;;;;4062086;28;20110;-71
2022/08/28 09:09:17;;;;;;;0.00;0.00;;;23.40;54.90;;;;;;4050481;28;20070;-71
2022/08/28 09:19:31;;;;;;;0.00;0.00;;;23.50;55.10;;;;;;4094187;28;20512;-64
2022/08/28 09:22:18;;;;;;;0.00;0.00;;;23.50;55.00;;;;;;4101353;28;20068;-64
2022/08/28 09:25:07;;;;;;;0.00;0.00;;;23.50;54.70;;;;;;4115965;28;20135;-64
2022/08/28 09:28:14;;;;;;;0.00;0.00;;;23.60;54.50;;;;;;4123473;28;20084;-64
2022/08/28 09:31:37;;;;;;;0.00;0.00;;;23.60;54.50;;;;;;4116305;28;20053;-64
2022/08/28 09:34:59;;;;;;;0.20;0.20;;;23.50;54.70;;;;;;4116152;28;20052;-64
2022/08/28 09:45:50;;;;;;;0.00;0.00;;;23.50;54.70;;;;;;4156812;28;20563;-63
2022/08/28 09:53:27;;;;;;;0.00;0.00;;;23.50;54.60;;;;;;4115711;28;20056;-63
2022/08/28 10:01:30;;;;;;;0.05;0.05;;;23.60;54.10;;;;;;4093382;28;20081;-63
2022/08/28 10:05:36;;;;;;;0.00;0.00;;;23.60;54.00;;;;;;4172788;28;20055;-63
2022/08/28 10:08:56;;;;;;;0.00;0.00;;;23.70;54.30;;;;;;4169839;28;20071;-64
2022/08/28 10:11:56;;;;;;;0.00;0.00;;;23.70;54.10;;;;;;4170020;28;20460;-64
2022/08/28 10:15:10;;;;;;;0.00;0.00;;;23.70;53.70;;;;;;4174047;28;20511;-63
2022/08/28 10:22:43;;;;;;;0.00;0.00;;;23.80;52.60;;;;;;4160144;28;20460;-72
2022/08/28 10:31:51;;;;;;;;;;;;;;;;;;;;;
2022/08/28 10:36:32;;;;;;;0.00;0.00;;;23.90;53.40;;;;;;4068048;28;20454;-72
2022/08/28 10:39:58;;;;;;;0.00;0.00;;;23.90;53.40;;;;;;4130836;28;20072;-72
2022/08/28 10:43:26;;;;;;;0.00;0.00;;;23.90;53.10;;;;;;4163342;28;20051;-72
2022/08/28 10:54:09;;;;;;;0.00;0.00;;;23.90;52.90;;;;;;4137007;28;20096;-72
2022/08/28 10:57:31;;;;;;;0.10;0.10;;;23.90;52.40;;;;;;4157938;28;20075;-71
2022/08/28 11:00:57;;;;;;;0.00;0.00;;;23.90;52.40;;;;;;4097670;28;20595;-72
2022/08/28 11:03:52;;;;;;;0.10;0.10;;;24.00;52.40;;;;;;4157759;28;20530;-72
2022/08/28 11:07:25;;;;;;;0.00;0.00;;;24.00;51.80;;;;;;4118754;28;20048;-72
2022/08/28 11:14:04;;;;;;;0.00;0.00;;;24.10;51.30;;;;;;4119622;28;20060;-68
2022/08/28 11:17:53;;;;;;;0.00;0.00;;;24.10;51.10;;;;;;4143664;28;20052;-72
2022/08/28 11:21:05;;;;;;;0.38;0.20;;;24.10;50.60;;;;;;4122162;28;20088;-70
2022/08/28 11:24:27;;;;;;;0.05;0.05;;;24.10;50.80;;;;;;4140007;28;20064;-71
2022/08/28 11:27:32;;;;;;;0.00;0.00;;;24.10;51.10;;;;;;4101783;28;20064;-71
2022/08/28 11:30:48;;;;;;;0.00;0.00;;;24.10;51.10;;;;;;4145563;28;20048;-71
2022/08/28 11:33:57;;;;;;;0.00;0.00;;;24.20;51.70;;;;;;4168198;28;20059;-72
2022/08/28 11:37:03;;;;;;;0.00;0.00;;;24.20;51.70;;;;;;4155523;28;20100;-71
2022/08/28 11:40:18;;;;;;;3.58;1.00;;;24.20;51.90;;;;;;4202016;28;20059;-67
2022/08/28 11:43:52;;;;;;;0.00;0.00;;;24.20;51.90;;;;;;4199615;28;20112;-70
2022/08/28 11:46:49;;;;;;;0.00;0.00;;;24.30;52.00;;;;;;4151376;28;20062;-62
2022/08/28 11:49:49;;;;;;;0.00;0.00;;;24.30;51.00;;;;;;4187804;28;20047;-62
2022/08/28 11:53:38;;;;;;;2.72;1.85;;;24.30;51.10;;;;;;4160717;28;20049;-62
2022/08/28 11:57:04;;;;;;;0.00;0.00;;;24.30;51.40;;;;;;4135779;28;20112;-61
2022/08/28 12:00:07;;;;;;;0.00;0.00;;;24.30;51.30;;;;;;4163611;28;20059;-62
2022/08/28 12:03:02;;;;;;;0.00;0.00;;;24.30;51.30;;;;;;4168231;28;20054;-63
2022/08/28 12:06:09;;;;;;;0.00;0.00;;;24.30;50.80;;;;;;4148128;28;20055;-63
2022/08/28 12:09:40;;;;;;;0.00;0.00;;;24.30;51.00;;;;;;4137983;28;20071;-62
2022/08/28 12:13:00;;;;;;;0.00;0.00;;;24.30;50.30;;;;;;4137332;28;20113;-63
2022/08/28 12:16:14;;;;;;;0.00;0.00;;;24.30;50.30;;;;;;4156765;28;20064;-63
2022/08/28 12:19:29;;;;;;;;;;;24.30;49.80;;;;;;4176103;28;20067;-63
2022/08/28 12:22:58;;;;;;;;;;;;;;;;;;;;;
2022/08/28 12:26:11;;;;;;;0.45;0.45;;;24.20;50.10;;;;;;4125746;28;20081;-63
2022/08/28 12:29:49;;;;;;;0.00;0.00;;;24.20;50.00;;;;;;4162247;28;20054;-63
2022/08/28 12:33:02;;;;;;;0.00;0.00;;;24.20;50.30;;;;;;4132482;28;20128;-62
2022/08/28 12:36:25;;;;;;;0.00;0.00;;;24.10;50.40;;;;;;4176557;28;20109;-62
2022/08/28 12:39:33;;;;;;;0.00;0.00;;;24.10;50.80;;;;;;4141138;28;20135;-62
2022/08/28 12:42:46;;;;;;;0.00;0.00;;;24.10;51.30;;;;;;4116061;28;20067;-62
2022/08/28 12:46:11;;;;;;;0.00;0.00;;;24.10;51.20;;;;;;4163048;28;20213;-62
2022/08/28 12:53:24;;;;;;;0.10;0.10;;;24.10;51.40;;;;;;4094901;28;20107;-60
2022/08/28 12:56:35;;;;;;;;;;;;;;;;;;;;;
2022/08/28 12:59:43;;;;;;;0.00;0.00;;;24.10;51.70;;;;;;4140382;28;20204;-60
2022/08/28 13:02:37;;;;;;;0.13;0.13;;;24.10;51.60;;;;;;4182818;28;20402;-61
2022/08/28 13:05:42;;;;;;;0.00;0.00;;;24.20;51.50;;;;;;4200088;28;20046;-61
2022/08/28 13:08:49;;;;;;;0.35;0.35;;;24.20;51.60;;;;;;4150761;28;20399;-62
2022/08/28 13:11:52;;;;;;;0.00;0.00;;;24.20;51.50;;;;;;4155405;28;20102;-61
2022/08/28 13:15:05;;;;;;;0.00;0.00;;;24.20;51.50;;;;;;4148232;28;20067;-60
2022/08/28 13:18:14;;;;;;;0.00;0.00;;;24.30;51.50;;;;;;4165866;28;20060;-60
2022/08/28 13:21:32;;;;;;;0.00;0.00;;;24.20;51.80;;;;;;4119549;28;20059;-60
2022/08/28 13:24:48;;;;;;;0.00;0.00;;;24.30;52.40;;;;;;4155185;28;20062;-62
2022/08/28 13:27:40;;;;;;;0.10;0.10;;;24.20;51.80;;;;;;4164941;28;20172;-65
2022/08/28 13:31:02;;;;;;;0.00;0.00;;;24.20;52.60;;;;;;4155788;28;20541;-68
2022/08/28 13:34:29;;;;;;;0.00;0.00;;;24.20;52.70;;;;;;4126363;28;20059;-67
2022/08/28 13:37:49;;;;;;;0.00;0.00;;;24.20;52.60;;;;;;4165519;28;20193;-68
2022/08/28 13:40:58;;;;;;;0.08;0.08;;;24.30;52.50;;;;;;4173858;28;20599;-68
2022/08/28 13:44:02;;;;;;;1.02;0.98;;;24.20;52.50;;;;;;4146549;28;20494;-61
2022/08/28 13:47:04;;;;;;;0.00;0.00;;;24.20;52.60;;;;;;4132273;28;20091;-59
2022/08/28 13:50:16;;;;;;;0.00;0.00;;;24.20;52.80;;;;;;4145105;28;20189;-59
2022/08/28 13:53:24;;;;;;;0.00;0.00;;;24.20;52.90;;;;;;4139729;28;20645;-67
2022/08/28 13:56:43;;;;;;;0.00;0.00;;;24.20;52.80;;;;;;4159513;28;20125;-68
2022/08/28 14:00:04;;;;;;;0.00;0.00;;;24.20;53.00;;;;;;4157343;28;20551;-68
2022/08/28 14:06:49;;;;;;;0.00;0.00;;;24.20;53.20;;;;;;4140505;28;20055;-67
2022/08/28 14:09:58;;;;;;;0.00;0.00;;;24.20;53.30;;;;;;4133279;28;20147;-65
2022/08/28 14:13:09;;;;;;;0.00;0.00;;;24.20;53.30;;;;;;4154072;28;20232;-65
2022/08/28 14:16:32;;;;;;;0.10;0.10;;;24.20;53.10;;;;;;4155040;28;20216;-68
2022/08/28 14:19:43;;;;;;;0.10;0.10;;;24.30;52.80;;;;;;4141438;28;20222;-67
2022/08/28 14:22:41;;;;;;;0.20;0.20;;;24.30;52.60;;;;;;4155214;28;20068;-68
2022/08/28 14:25:41;;;;;;;0.00;0.00;;;24.30;52.40;;;;;;4137214;28;20129;-61
2022/08/28 14:28:50;;;;;;;0.00;0.00;;;24.20;51.80;;;;;;4162603;28;20204;-68
2022/08/28 14:32:04;;;;;;;0.00;0.00;;;24.20;51.90;;;;;;4142717;28;20062;-67
2022/08/28 14:34:56;;;;;;;0.00;0.00;;;24.20;52.50;;;;;;4124394;28;20387;-68
2022/08/28 14:37:52;;;;;;;0.32;0.32;;;24.20;52.70;;;;;;4152180;28;20051;-61
2022/08/28 14:40:50;;;;;;;0.00;0.00;;;24.10;52.60;;;;;;4141607;28;20056;-59
2022/08/28 14:43:49;;;;;;;0.00;0.00;;;24.10;52.50;;;;;;4153865;28;20099;-67
2022/08/28 14:50:23;;;;;;;33.72;1.20;;;24.10;52.60;;;;;;4159887;28;20411;-62
2022/08/28 14:53:48;;;;;;;0.00;0.00;;;24.10;52.60;;;;;;4144066;28;20578;-60
2022/08/28 14:56:55;;;;;;;0.15;0.15;;;24.10;52.50;;;;;;4135312;28;20064;-59
2022/08/28 15:00:04;;;;;;;0.00;0.00;;;24.10;53.00;;;;;;4160282;28;20170;-61
2022/08/28 15:03:03;;;;;;;0.00;0.00;;;24.10;52.90;;;;;;4153914;28;20509;-60
2022/08/28 15:06:08;;;;;;;0.05;0.05;;;24.10;53.00;;;;;;4164431;28;20534;-61
2022/08/28 15:09:10;;;;;;;0.00;0.00;;;24.10;53.00;;;;;;4188572;28;20054;-61
2022/08/28 15:12:18;;;;;;;0.00;0.00;;;24.10;53.10;;;;;;4140817;28;20114;-62
2022/08/28 15:15:50;;;;;;;0.00;0.00;;;24.10;53.30;;;;;;4147772;28;20107;-68
2022/08/28 15:22:16;;;;;;;0.00;0.00;;;24.10;53.10;;;;;;4144480;28;20561;-60
2022/08/28 15:25:32;;;;;;;0.00;0.00;;;24.10;53.20;;;;;;4148789;28;20052;-67
2022/08/28 15:28:14;;;;;;;0.00;0.00;;;24.00;53.20;;;;;;4180121;28;20132;-68
2022/08/28 15:30:55;;;;;;;0.28;0.28;;;24.00;53.40;;;;;;4158204;28;20055;-68
2022/08/28 15:33:36;;;;;;;0.00;0.00;;;24.10;53.50;;;;;;4148748;28;20060;-67
2022/08/28 15:36:20;;;;;;;0.00;0.00;;;24.00;53.40;;;;;;4158055;28;20056;-67
2022/08/28 15:42:08;;;;;;;0.00;0.00;;;24.00;53.20;;;;;;4163498;28;20052;-68
2022/08/28 15:44:50;;;;;;;0.10;0.10;;;24.00;53.50;;;;;;4157364;28;20140;-70
2022/08/28 15:47:31;;;;;;;0.00;0.00;;;24.00;53.40;;;;;;4169632;28;20598;-70
2022/08/28 15:50:14;;;;;;;0.00;0.00;;;24.00;53.60;;;;;;4170431;28;20664;-70
2022/08/28 15:52:55;;;;;;;0.00;0.00;;;24.00;53.80;;;;;;4141824;28;20180;-62
2022/08/28 15:55:37;;;;;;;0.00;0.00;;;24.00;53.80;;;;;;4166241;28;20048;-64
2022/08/28 15:58:20;;;;;;;0.00;0.00;;;24.00;53.90;;;;;;4160723;28;20052;-65
2022/08/28 16:01:05;;;;;;;0.00;0.00;;;24.00;53.90;;;;;;4157531;28;20075;-64
2022/08/28 16:03:47;;;;;;;0.00;0.00;;;24.00;54.00;;;;;;4147931;28;20523;-61
2022/08/28 16:06:28;;;;;;;0.00;0.00;;;24.00;54.10;;;;;;4167273;28;20059;-61
2022/08/28 16:09:13;;;;;;;0.00;0.00;;;24.00;53.90;;;;;;4164124;28;20095;-64
2022/08/28 16:11:58;;;;;;;0.22;0.22;;;24.00;53.80;;;;;;4171087;28;20106;-62
2022/08/28 16:14:41;;;;;;;0.00;0.00;;;24.00;54.00;;;;;;4157588;28;20110;-65
2022/08/28 16:17:23;;;;;;;0.00;0.00;;;23.90;53.90;;;;;;4156726;28;20488;-63
2022/08/28 16:20:06;;;;;;;0.00;0.00;;;23.90;54.20;;;;;;4163744;28;20090;-62
2022/08/28 16:22:50;;;;;;;0.00;0.00;;;23.90;54.00;;;;;;4188580;28;20130;-61
2022/08/28 16:25:32;;;;;;;0.00;0.00;;;23.90;53.90;;;;;;4191407;28;20499;-61
2022/08/28 16:28:15;;;;;;;0.00;0.00;;;23.90;54.10;;;;;;4182356;28;20457;-63
2022/08/28 16:30:58;;;;;;;0.00;0.00;;;23.90;54.20;;;;;;4179589;28;20055;-63
2022/08/28 16:33:41;;;;;;;0.00;0.00;;;23.90;54.40;;;;;;4189517;28;20406;-66
2022/08/28 16:36:32;;;;;;;0.10;0.10;;;24.00;54.20;;;;;;4136901;28;20466;-61
2022/08/28 16:39:23;;;;;;;0.00;0.00;;;24.00;53.70;;;;;;4178534;28;20055;-62
2022/08/28 16:42:10;;;;;;;0.30;0.30;;;24.00;53.60;;;;;;4162827;28;20439;-62
2022/08/28 16:45:04;;;;;;;0.30;0.30;;;24.00;54.00;;;;;;4175970;28;20129;-64
2022/08/28 16:47:57;;;;;;;0.38;0.38;;;24.00;53.80;;;;;;4178787;28;20489;-62
2022/08/28 16:50:49;;;;;;;0.00;0.00;;;24.00;53.70;;;;;;4169663;28;20056;-61
2022/08/28 16:54:03;;;;;;;0.00;0.00;;;24.10;54.10;;;;;;4177830;28;20047;-63
2022/08/28 16:57:02;;;;;;;0.00;0.00;;;24.00;54.00;;;;;;4187611;28;20051;-61
2022/08/28 16:59:55;;;;;;;0.00;0.00;;;24.10;54.10;;;;;;4166780;28;20128;-61
2022/08/28 17:02:42;;;;;;;0.00;0.00;;;24.10;54.00;;;;;;4155036;28;20138;-68
2022/08/28 17:05:35;;;;;;;0.00;0.00;;;24.10;54.00;;;;;;4152062;28;20063;-71
2022/08/28 17:08:29;;;;;;;0.15;0.15;;;24.10;53.90;;;;;;4182793;28;20058;-61
2022/08/28 17:11:14;;;;;;;0.00;0.00;;;24.10;54.00;;;;;;4183758;28;20774;-62
2022/08/28 17:14:06;;;;;;;0.20;0.20;;;24.00;53.80;;;;;;4175428;28;20086;-61
2022/08/28 17:16:53;;;;;;;0.00;0.00;;;24.00;53.80;;;;;;4183210;27;20120;-71
2022/08/28 17:19:46;;;;;;;0.00;0.00;;;24.00;53.80;;;;;;4153271;28;20426;-69
2022/08/28 17:22:34;;;;;;;0.00;0.00;;;24.00;53.90;;;;;;4124144;28;20068;-72
2022/08/28 17:25:28;;;;;;;0.00;0.00;;;24.00;54.10;;;;;;4110686;28;20932;-71
2022/08/28 17:28:14;;;;;;;0.00;0.00;;;23.90;54.00;;;;;;4133701;28;20144;-70
2022/08/28 17:31:06;;;;;;;0.00;0.00;;;23.90;54.30;;;;;;4121408;28;20084;-69
2022/08/28 17:34:20;;;;;;;0.00;0.00;;;23.90;54.40;;;;;;4121891;28;20501;-71
2022/08/28 17:37:03;;;;;;;0.00;0.00;;;23.90;54.50;;;;;;4117500;28;20056;-70
2022/08/28 17:40:05;;;;;;;0.00;0.00;;;23.90;54.00;;;;;;4139613;28;20048;-70
2022/08/28 17:43:02;;;;;;;0.00;0.00;;;23.90;54.00;;;;;;4158695;28;20137;-70
2022/08/28 17:46:00;;;;;;;0.00;0.00;;;23.90;54.00;;;;;;4118886;28;21510;-73
2022/08/28 17:48:49;;;;;;;0.00;0.00;;;23.80;53.50;;;;;;4145039;28;20051;-71
2022/08/28 17:51:39;;;;;;;19.65;0.90;;;23.80;53.90;;;;;;4142050;28;20076;-63
2022/08/28 17:54:27;;;;;;;0.00;0.00;;;23.80;53.90;;;;;;4137831;28;20049;-62
2022/08/28 17:57:15;;;;;;;0.93;0.93;;;23.80;54.10;;;;;;4141043;28;20066;-64
2022/08/28 18:00:09;;;;;;;0.00;0.00;;;23.80;54.00;;;;;;4145852;28;20056;-63
2022/08/28 18:06:19;;;;;;;0.00;0.00;;;23.70;53.60;;;;;;4145308;28;20199;-62
2022/08/28 18:09:27;;;;;;;7.22;1.35;;;23.70;53.70;;;;;;4137658;28;20502;-63
2022/08/28 18:12:09;;;;;;;0.00;0.00;;;23.70;53.40;;;;;;4124541;28;20152;-62
2022/08/28 18:15:34;;;;;;;0.15;0.15;;;23.70;53.80;;;;;;4157689;28;20096;-69
2022/08/28 18:18:22;;;;;;;0.00;0.00;;;23.70;53.80;;;;;;4084130;28;20109;-70
2022/08/28 18:21:23;;;;;;;0.00;0.00;;;23.70;54.40;;;;;;4133516;28;20060;-67
2022/08/28 18:24:16;;;;;;;0.00;0.00;;;23.70;54.60;;;;;;4152349;28;20073;-69
2022/08/28 18:27:30;;;;;;;0.00;0.00;;;23.60;54.60;;;;;;4120134;28;20211;-70
2022/08/28 18:30:19;;;;;;;0.65;0.52;;;23.60;54.50;;;;;;4160075;28;20048;-70
2022/08/28 18:38:00;;;;;;;1.55;1.10;;;23.60;54.90;;;;;;4140761;28;20061;-72
2022/08/28 18:41:13;;;;;;;0.00;0.00;;;23.60;54.90;;;;;;4167766;28;20752;-71
2022/08/28 18:44:17;;;;;;;;;;;23.60;54.70;;;;;;4174058;28;20083;-63
2022/08/28 18:47:11;;;;;;;0.00;0.00;;;23.60;54.70;;;;;;4156379;28;20018;-61
2022/08/28 18:50:20;;;;;;;0.00;0.00;;;23.60;54.70;;;;;;4167179;28;20055;-61
2022/08/28 18:53:19;;;;;;;0.00;0.00;;;23.60;54.50;;;;;;4164836;28;20141;-63
2022/08/28 18:56:20;;;;;;;0.00;0.00;;;23.60;53.80;;;;;;4161695;28;20126;-62
2022/08/28 18:59:57;;;;;;;0.00;0.00;;;23.50;54.00;;;;;;4128485;28;20142;-70
2022/08/28 19:02:42;;;;;;;0.00;0.00;;;23.50;54.20;;;;;;4158430;28;20230;-71
2022/08/28 19:06:03;;;;;;;0.00;0.00;;;23.50;53.50;;;;;;4138154;28;20404;-70
2022/08/28 19:09:13;;;;;;;0.00;0.00;;;23.50;54.10;;;;;;4150894;28;20056;-70
2022/08/28 19:12:06;;;;;;;0.00;0.00;;;23.50;55.10;;;;;;4158955;28;20866;-67
2022/08/28 19:15:04;;;;;;;1.58;1.48;;;23.50;54.20;;;;;;4127242;28;20154;-71
2022/08/28 19:17:59;;;;;;;0.00;0.00;;;23.50;54.50;;;;;;4170722;28;20052;-62
2022/08/28 19:20:56;;;;;;;0.00;0.00;;;23.50;53.60;;;;;;4169464;28;20626;-64
2022/08/28 19:23:50;;;;;;;0.00;0.00;;;23.50;54.10;;;;;;4183240;28;20052;-63
2022/08/28 19:27:17;;;;;;;0.00;0.00;;;23.50;54.60;;;;;;4167977;28;20141;-64
2022/08/28 19:30:47;;;;;;;0.00;0.00;;;23.50;54.60;;;;;;4165265;28;20103;-63
2022/08/28 19:34:46;;;;;;;0.40;0.30;;;23.50;54.50;;;;;;4160099;28;20456;-66
2022/08/28 19:46:09;;;;;;;0.10;0.10;;;23.50;54.60;;;;;;4053496;28;20083;-71
2022/08/28 19:49:53;;;;;;;0.00;0.00;;;23.50;54.60;;;;;;4018742;28;20099;-67
2022/08/28 19:53:19;;;;;;;0.30;0.30;;;23.50;54.60;;;;;;4081815;28;20050;-71
2022/08/28 20:00:28;;;;;;;2.38;1.15;;;23.50;54.60;;;;;;4104555;28;20133;-63
2022/08/28 20:03:38;;;;;;;0.55;0.38;;;23.50;54.60;;;;;;4198432;28;20050;-62
2022/08/28 20:06:54;;;;;;;0.00;0.00;;;23.50;54.60;;;;;;4170493;28;20423;-64
2022/08/28 20:09:54;;;;;;;0.00;0.00;;;23.50;54.70;;;;;;4099767;28;20065;-62